Time;durP1;ratioP1;P1;durP2;ratioP2;P2;SDS_P1;SDS_P2;PMS_P1;PMS_P2;Temp;Humidity;BMP_temperature;BMP_pressure;BME280_temperature;BME280_humidity;BME280_pressure;Samples;Min_cycle;Max_cycle;Signal;HPM_P1;HPM_P2
2022/07/25 00:00:42;;;;;;;14.30;12.88;;;;;;;30.19;72.18;100755.03;5023353;28;66908;-28
2022/07/25 00:03:12;;;;;;;13.88;12.35;;;;;;;30.19;73.29;100757.75;4955328;28;69843;-29
2022/07/25 00:05:47;;;;;;;13.43;11.85;;;;;;;30.23;72.63;100756.31;5022184;28;66396;-30
2022/07/25 00:08:18;;;;;;;10.88;9.88;;;;;;;30.27;72.10;100751.28;4959327;28;70181;-30
2022/07/25 00:10:49;;;;;;;11.23;10.23;;;;;;;30.30;72.42;100767.06;4959412;28;65294;-30
2022/07/25 00:13:20;;;;;;;16.27;10.40;;;;;;;30.33;72.00;100763.09;4956885;28;70342;-31
2022/07/25 00:15:51;;;;;;;12.18;10.85;;;;;;;30.40;72.11;100774.72;4958613;28;65334;-28
2022/07/25 00:18:22;;;;;;;10.47;9.43;;;;;;;30.41;72.23;100765.53;5024268;28;69929;-29
2022/07/25 00:20:53;;;;;;;11.30;10.27;;;;;;;30.46;72.29;100771.94;4958678;28;65811;-30
2022/07/25 00:23:24;;;;;;;11.00;9.93;;;;;;;30.50;72.58;100783.16;4963152;28;70190;-29
2022/07/25 00:25:55;;;;;;;12.02;9.02;;;;;;;30.55;72.99;100780.63;4957889;28;66637;-31
2022/07/25 00:28:25;;;;;;;16.23;9.10;;;;;;;30.54;73.01;100778.97;4954829;28;69452;-30
2022/07/25 00:30:56;;;;;;;12.98;8.43;;;;;;;30.67;70.62;100788.84;4956687;28;66223;-30
2022/07/25 00:33:27;;;;;;;11.50;9.13;;;;;;;30.75;69.89;100790.47;4959837;28;70385;-30
2022/07/25 00:35:58;;;;;;;14.70;7.70;;;;;;;30.80;69.51;100782.53;4958521;28;67268;-31
2022/07/25 00:38:29;;;;;;;14.25;9.15;;;;;;;30.88;69.14;100795.78;4952971;28;70365;-30
2022/07/25 00:41:01;;;;;;;9.63;7.53;;;;;;;30.87;69.06;100796.81;4970746;28;66520;-30
2022/07/25 00:43:32;;;;;;;;;;;;;;;30.65;72.04;100799.91;5016545;28;69503;-28
2022/07/25 00:46:02;;;;;;;10.45;7.65;;;;;;;31.02;69.93;100791.91;4956651;28;67148;-30
2022/07/25 00:48:36;;;;;;;11.18;8.40;;;;;;;31.09;69.50;100787.25;4959685;28;69669;-29
2022/07/25 00:51:08;;;;;;;12.00;8.27;;;;;;;31.16;68.95;100798.84;4956428;28;65227;-29
2022/07/25 00:53:39;;;;;;;7.93;7.25;;;;;;;31.17;69.40;100781.56;5024249;28;70216;-29
2022/07/25 00:56:10;;;;;;;10.55;7.68;;;;;;;31.16;68.66;100782.59;5023060;28;66078;-29
2022/07/25 00:58:41;;;;;;;7.57;6.87;;;;;;;31.28;68.89;100798.09;4955327;28;69058;-29
2022/07/25 01:01:12;;;;;;;8.30;7.55;;;;;;;31.33;68.03;100798.25;4955303;28;66175;-29
2022/07/25 01:03:43;;;;;;;7.72;7.15;;;;;;;31.37;68.38;100803.03;4951601;28;70753;-29
2022/07/25 01:06:14;;;;;;;10.73;7.18;;;;;;;31.32;68.00;100792.00;4957939;28;65237;-29
2022/07/25 01:08:46;;;;;;;8.00;7.20;;;;;;;31.12;67.83;100759.72;4959441;28;70151;-30
2022/07/25 01:11:16;;;;;;;;;;;;;;;31.12;69.31;100813.06;4959796;28;66696;-29
2022/07/25 01:13:47;;;;;;;6.85;6.20;;;;;;;31.34;67.84;100799.91;4957290;28;69117;-29
2022/07/25 01:16:18;;;;;;;7.80;7.10;;;;;;;31.45;67.23;100812.72;4957523;28;67792;-30
2022/07/25 01:18:49;;;;;;;14.30;6.97;;;;;;;31.48;67.14;100809.59;4958066;28;69075;-29
2022/07/25 01:21:22;;;;;;;7.70;7.00;;;;;;;31.53;66.91;100820.56;4957320;28;67599;-29
2022/07/25 01:23:53;;;;;;;7.57;6.03;;;;;;;31.58;66.46;100820.72;4958645;28;70550;-30
2022/07/25 01:26:23;;;;;;;7.20;6.50;;;;;;;31.60;66.77;100820.50;4957285;28;66797;-30
2022/07/25 01:28:55;;;;;;;9.75;7.07;;;;;;;31.55;66.45;100809.50;4959008;28;69541;-29
2022/07/25 01:31:26;;;;;;;;;;;;;;;31.32;67.60;100821.00;4957854;28;66375;-30
2022/07/25 01:33:57;;;;;;;6.07;5.68;;;;;;;31.33;65.92;100771.16;4954461;28;70476;-29
2022/07/25 01:36:28;;;;;;;6.53;6.00;;;;;;;31.58;66.06;100806.34;4959167;28;65925;-29
2022/07/25 01:39:00;;;;;;;6.57;6.07;;;;;;;31.65;65.95;100812.53;4953140;28;70055;-30
2022/07/25 01:41:31;;;;;;;6.45;5.95;;;;;;;31.73;65.46;100823.06;4955840;28;66245;-30
2022/07/25 01:44:01;;;;;;;5.93;5.53;;;;;;;31.73;65.05;100819.50;4958265;28;70153;-29
2022/07/25 01:46:33;;;;;;;6.43;5.95;;;;;;;31.73;65.41;100816.78;4959139;28;66033;-30
2022/07/25 01:49:04;;;;;;;7.10;6.15;;;;;;;31.75;65.29;100812.78;4959512;28;70443;-29
2022/07/25 01:51:35;;;;;;;9.10;6.38;;;;;;;31.80;65.05;100814.84;4959078;28;65923;-30
2022/07/25 01:54:06;;;;;;;7.68;5.72;;;;;;;31.87;64.64;100814.75;4959496;28;69558;-31
2022/07/25 01:56:43;;;;;;;6.90;6.00;;;;;;;31.45;65.00;100744.97;4955162;28;65861;-30
2022/07/25 01:59:16;;;;;;;5.72;5.32;;;;;;;31.91;64.72;100822.22;4960051;28;69552;-30
2022/07/25 02:01:47;;;;;;;6.90;5.70;;;;;;;31.92;64.53;100817.63;4958584;28;66312;-29
2022/07/25 02:04:18;;;;;;;5.65;5.22;;;;;;;31.91;64.45;100814.09;4958449;28;69465;-30
2022/07/25 02:06:51;;;;;;;5.90;5.40;;;;;;;31.87;64.04;100802.00;4958670;28;66438;-30
2022/07/25 02:09:22;;;;;;;6.50;6.00;;;;;;;31.99;63.89;100812.97;4958325;28;70540;-30
2022/07/25 02:11:54;;;;;;;5.63;5.13;;;;;;;32.03;64.35;100817.66;4958525;28;65358;-29
2022/07/25 02:14:26;;;;;;;6.68;5.45;;;;;;;32.03;64.11;100809.53;4952864;28;70225;-29
2022/07/25 02:16:57;;;;;;;6.17;5.47;;;;;;;32.05;63.93;100812.84;4955112;28;65122;-30
2022/07/25 02:19:28;;;;;;;8.88;5.28;;;;;;;32.02;64.01;100802.47;4959526;28;69777;-30
2022/07/25 02:21:59;;;;;;;5.97;5.47;;;;;;;32.12;63.54;100801.06;4958884;28;65460;-29
2022/07/25 02:24:30;;;;;;;6.13;5.65;;;;;;;32.15;63.44;100814.19;4958396;28;70224;-29
2022/07/25 02:27:00;;;;;;;7.30;5.20;;;;;;;32.10;63.30;100797.78;4959540;28;68111;-31
2022/07/25 02:29:31;;;;;;;5.43;5.03;;;;;;;32.17;63.30;100804.75;4956738;28;70301;-29
2022/07/25 02:32:02;;;;;;;5.78;5.13;;;;;;;32.18;63.22;100808.28;4965126;28;65606;-29
2022/07/25 02:34:33;;;;;;;5.97;5.40;;;;;;;31.99;62.80;100777.69;4955587;28;71123;-30
2022/07/25 02:37:04;;;;;;;5.85;5.38;;;;;;;32.23;62.94;100808.44;4957414;28;66380;-29
2022/07/25 02:39:35;;;;;;;5.13;4.63;;;;;;;32.22;62.92;100796.75;4956781;28;69427;-30
2022/07/25 02:42:07;;;;;;;5.57;5.07;;;;;;;31.95;63.06;100758.31;4959992;28;67039;-30
2022/07/25 02:44:37;;;;;;;9.43;4.80;;;;;;;32.27;63.07;100804.19;4956210;28;71476;-30
2022/07/25 02:47:08;;;;;;;5.32;4.82;;;;;;;32.28;62.71;100790.38;4958478;28;66291;-30
2022/07/25 02:49:39;;;;;;;7.78;4.88;;;;;;;32.31;62.48;100789.09;5021894;28;70250;-30
2022/07/25 02:52:10;;;;;;;5.22;4.43;;;;;;;32.33;62.82;100791.59;5031737;28;66009;-29
2022/07/25 02:54:41;;;;;;;4.30;4.00;;;;;;;32.34;62.58;100783.19;4957880;28;70555;-29
2022/07/25 02:57:12;;;;;;;8.68;5.63;;;;;;;32.34;62.55;100772.34;4957885;28;67209;-30
2022/07/25 02:59:43;;;;;;;5.05;4.70;;;;;;;32.38;62.44;100783.59;4956913;28;70652;-30
2022/07/25 03:02:14;;;;;;;5.05;4.65;;;;;;;32.35;62.56;100768.59;4957633;28;65771;-29
2022/07/25 03:04:46;;;;;;;4.47;4.18;;;;;;;32.33;62.08;100759.84;4956133;28;69419;-30
2022/07/25 03:07:17;;;;;;;4.93;4.63;;;;;;;32.42;62.23;100780.16;4955997;28;66713;-29
2022/07/25 03:09:48;;;;;;;5.15;4.75;;;;;;;32.34;61.95;100764.19;4956675;28;70081;-30
2022/07/25 03:12:19;;;;;;;4.07;3.77;;;;;;;32.45;62.14;100776.97;4951498;28;66146;-30
2022/07/25 03:14:50;;;;;;;5.05;4.63;;;;;;;32.36;61.97;100747.69;4951669;28;70278;-30
2022/07/25 03:17:21;;;;;;;5.25;3.88;;;;;;;32.48;62.13;100778.41;4956184;28;66472;-30
2022/07/25 03:19:51;;;;;;;7.22;4.43;;;;;;;32.47;61.93;100774.88;4951108;28;69758;-30
2022/07/25 03:22:23;;;;;;;4.43;4.03;;;;;;;32.52;61.74;100773.38;4952612;28;66576;-29
2022/07/25 03:24:54;;;;;;;5.47;3.92;;;;;;;32.52;61.83;100773.38;4957785;28;69865;-30
2022/07/25 03:27:26;;;;;;;5.67;4.23;;;;;;;32.56;62.02;100771.81;4957286;28;66459;-30
2022/07/25 03:29:57;;;;;;;4.57;4.28;;;;;;;32.58;61.63;100772.41;4951931;28;69800;-30
2022/07/25 03:32:28;;;;;;;4.60;4.20;;;;;;;32.58;61.74;100772.41;4957037;28;67772;-30
2022/07/25 03:34:59;;;;;;;4.57;4.10;;;;;;;32.48;61.58;100757.53;4956398;28;70209;-29
2022/07/25 03:37:30;;;;;;;5.27;4.80;;;;;;;32.63;61.48;100775.28;4957799;28;67797;-31
2022/07/25 03:40:01;;;;;;;4.75;4.40;;;;;;;32.66;61.15;100774.78;4955731;28;70025;-30
2022/07/25 03:42:32;;;;;;;4.93;4.50;;;;;;;32.67;61.38;100777.25;4956475;28;66726;-30
2022/07/25 03:45:04;;;;;;;4.20;3.77;;;;;;;32.70;61.07;100770.53;4958198;28;69158;-30
2022/07/25 03:47:35;;;;;;;4.32;4.05;;;;;;;32.71;61.25;100755.91;4956424;28;65930;-30
2022/07/25 03:50:06;;;;;;;6.03;4.60;;;;;;;32.70;61.38;100743.38;4956341;28;69908;-31
2022/07/25 03:52:37;;;;;;;6.27;4.77;;;;;;;32.75;61.22;100750.81;4956896;28;66480;-30
2022/07/25 03:55:10;;;;;;;4.68;4.25;;;;;;;32.79;61.03;100732.97;4956262;28;70076;-29
2022/07/25 03:57:40;;;;;;;4.38;4.07;;;;;;;32.78;60.97;100732.16;4956661;28;67231;-29
2022/07/25 04:00:11;;;;;;;5.13;3.97;;;;;;;32.82;60.93;100736.06;4960767;28;70164;-30
2022/07/25 04:02:42;;;;;;;10.10;4.43;;;;;;;32.72;60.91;100722.25;4953606;28;65523;-30
2022/07/25 04:05:13;;;;;;;4.85;3.85;;;;;;;32.81;61.19;100731.69;4953902;28;71245;-30
2022/07/25 04:07:44;;;;;;;7.13;4.03;;;;;;;32.85;60.67;100735.59;4959324;28;65710;-30
2022/07/25 04:10:16;;;;;;;4.85;4.32;;;;;;;32.85;60.78;100730.16;4959599;28;69536;-30
2022/07/25 04:12:47;;;;;;;6.53;4.88;;;;;;;32.88;61.02;100729.69;4958140;28;66113;-30
2022/07/25 04:15:17;;;;;;;8.65;4.50;;;;;;;32.90;60.92;100733.00;4960495;28;70151;-30
2022/07/25 04:17:48;;;;;;;5.68;4.72;;;;;;;32.91;60.76;100729.19;4955451;28;65531;-30
2022/07/25 04:20:20;;;;;;;11.73;4.68;;;;;;;32.91;60.52;100721.03;4957742;28;69563;-30
2022/07/25 04:22:50;;;;;;;5.60;4.28;;;;;;;32.94;60.54;100723.28;4961006;28;65975;-30
2022/07/25 04:25:21;;;;;;;5.50;4.63;;;;;;;32.98;60.42;100717.38;4959290;28;70203;-30
2022/07/25 04:27:52;;;;;;;5.25;3.88;;;;;;;32.99;60.38;100708.13;5003933;28;66529;-31
2022/07/25 04:30:23;;;;;;;10.13;4.37;;;;;;;33.00;60.47;100705.22;4961112;28;69294;-29
2022/07/25 04:32:54;;;;;;;7.78;5.10;;;;;;;33.04;60.26;100702.84;4959083;28;66317;-31
2022/07/25 04:35:25;;;;;;;5.53;4.50;;;;;;;33.07;60.12;100699.66;4960176;28;70139;-30
2022/07/25 04:37:55;;;;;;;5.78;5.28;;;;;;;33.00;60.17;100688.09;4958709;28;66118;-29
2022/07/25 04:40:27;;;;;;;4.32;4.03;;;;;;;33.09;60.09;100700.25;4959361;28;69778;-29
2022/07/25 04:42:58;;;;;;;10.30;4.53;;;;;;;33.09;60.15;100692.09;4954171;28;66339;-30
2022/07/25 04:45:28;;;;;;;6.68;4.32;;;;;;;33.05;60.08;100670.03;4954030;28;70410;-31
2022/07/25 04:48:00;;;;;;;5.78;4.30;;;;;;;33.17;59.92;100683.56;4959371;28;65292;-30
2022/07/25 04:50:31;;;;;;;6.20;4.50;;;;;;;33.19;59.95;100681.44;4959712;28;68948;-31
2022/07/25 04:53:02;;;;;;;6.80;4.70;;;;;;;33.18;59.86;100674.34;4952184;28;66254;-30
2022/07/25 04:55:33;;;;;;;4.80;4.27;;;;;;;33.22;59.95;100678.25;4958161;28;69837;-30
2022/07/25 04:58:04;;;;;;;;;;;;;;;32.92;60.32;100671.06;4958754;28;66402;-29
2022/07/25 05:00:35;;;;;;;5.90;4.60;;;;;;;33.24;59.66;100667.09;4957499;28;69844;-30
2022/07/25 05:03:06;;;;;;;4.78;3.83;;;;;;;33.26;59.79;100664.97;4955476;28;67457;-31
2022/07/25 05:05:37;;;;;;;5.60;4.50;;;;;;;33.30;59.66;100661.53;4958164;28;69244;-30
2022/07/25 05:08:08;;;;;;;4.10;3.80;;;;;;;33.21;59.50;100640.41;4952792;28;66301;-30
2022/07/25 05:10:39;;;;;;;8.35;4.25;;;;;;;33.31;59.35;100657.75;4955302;28;70421;-30
2022/07/25 05:13:10;;;;;;;4.47;4.07;;;;;;;33.34;59.41;100645.56;4952586;28;65540;-30
2022/07/25 05:15:42;;;;;;;4.65;4.20;;;;;;;33.38;59.32;100646.75;4954534;28;69519;-30
2022/07/25 05:18:14;;;;;;;4.13;3.80;;;;;;;33.38;59.35;100642.13;4956578;28;65329;-33
2022/07/25 05:20:45;;;;;;;4.15;3.67;;;;;;;33.39;59.26;100642.94;4957572;28;70046;-32
2022/07/25 05:23:16;;;;;;;4.97;4.28;;;;;;;33.45;59.33;100641.16;4959393;28;66226;-30
2022/07/25 05:25:48;;;;;;;6.07;4.25;;;;;;;33.43;59.51;100626.97;4956834;28;69994;-32
2022/07/25 05:28:19;;;;;;;3.88;3.50;;;;;;;33.49;59.46;100636.84;4952476;28;65699;-31
2022/07/25 05:30:50;;;;;;;5.83;3.90;;;;;;;33.51;59.22;100623.84;4953360;28;72218;-31
2022/07/25 05:33:21;;;;;;;5.93;4.03;;;;;;;33.48;59.14;100618.91;4957162;28;65125;-30
2022/07/25 05:35:52;;;;;;;4.60;4.07;;;;;;;33.56;59.02;100626.69;4947081;28;69803;-31
2022/07/25 05:38:22;;;;;;;3.73;3.43;;;;;;;33.52;59.00;100609.22;4949097;28;66965;-32
2022/07/25 05:40:54;;;;;;;9.60;4.18;;;;;;;33.62;59.10;100614.00;4951943;28;69211;-30
2022/07/25 05:43:25;;;;;;;3.92;3.63;;;;;;;33.64;58.79;100607.25;4954669;28;66145;-30
2022/07/25 05:46:04;;;;;;;4.05;3.72;;;;;;;33.66;58.59;100599.69;5021272;28;70955;-32
2022/07/25 05:48:35;;;;;;;3.97;3.67;;;;;;;33.70;58.69;100605.44;4953257;28;66696;-32
2022/07/25 05:51:06;;;;;;;3.97;3.63;;;;;;;33.71;58.83;100607.94;4955371;28;70794;-30
2022/07/25 05:53:37;;;;;;;4.68;3.53;;;;;;;33.73;58.72;100594.91;4956054;28;65162;-31
2022/07/25 05:56:09;;;;;;;4.27;3.97;;;;;;;33.77;58.60;100590.63;4951793;28;71129;-30
2022/07/25 05:58:41;;;;;;;4.13;3.83;;;;;;;33.81;58.46;100585.50;4953804;28;66601;-29
2022/07/25 06:01:13;;;;;;;4.13;3.80;;;;;;;33.84;58.39;100589.63;4954296;28;69852;-30
2022/07/25 06:03:44;;;;;;;4.28;3.63;;;;;;;33.87;58.32;100581.78;5011483;28;66287;-30
2022/07/25 06:06:15;;;;;;;3.47;3.28;;;;;;;33.90;58.34;100572.31;4956878;28;69739;-30
2022/07/25 06:08:46;;;;;;;3.80;3.60;;;;;;;33.88;58.00;100569.00;4951832;28;65616;-31
2022/07/25 06:11:17;;;;;;;3.33;3.05;;;;;;;33.92;58.25;100553.84;4956873;28;69479;-30
2022/07/25 06:13:48;;;;;;;;;;;;;;;33.67;58.67;100551.53;4956019;28;66137;-30
2022/07/25 06:16:19;;;;;;;4.13;3.83;;;;;;;33.95;58.14;100551.44;5025237;28;70607;-30
2022/07/25 06:18:50;;;;;;;4.57;4.18;;;;;;;33.98;57.79;100544.69;4958349;28;66617;-30
2022/07/25 06:21:21;;;;;;;4.13;3.57;;;;;;;34.01;58.08;100549.63;4957199;28;70758;-30
2022/07/25 06:23:52;;;;;;;3.85;3.55;;;;;;;34.04;58.24;100549.13;4958488;28;65514;-31
2022/07/25 06:26:24;;;;;;;4.03;3.63;;;;;;;34.06;58.06;100546.19;4958619;28;69844;-30
2022/07/25 06:28:55;;;;;;;3.65;3.35;;;;;;;34.02;57.98;100537.69;4959105;28;64905;-30
2022/07/25 06:31:25;;;;;;;4.00;3.67;;;;;;;34.09;57.99;100538.34;4957280;28;69957;-30
2022/07/25 06:33:56;;;;;;;3.67;3.38;;;;;;;33.99;57.93;100510.94;4956368;28;66145;-30
2022/07/25 06:36:27;;;;;;;5.45;3.38;;;;;;;34.16;58.01;100527.28;4957737;28;69408;-30
2022/07/25 06:39:02;;;;;;;3.83;3.63;;;;;;;33.96;57.78;100482.34;4957620;28;66632;-30
2022/07/25 06:41:33;;;;;;;3.83;3.47;;;;;;;34.20;57.67;100528.41;4954842;28;70071;-30
2022/07/25 06:44:04;;;;;;;3.80;3.50;;;;;;;34.20;57.66;100518.34;5022974;28;65439;-30
2022/07/25 06:46:36;;;;;;;4.40;3.92;;;;;;;34.21;57.86;100511.00;5023946;28;69504;-30
2022/07/25 06:49:06;;;;;;;3.78;3.55;;;;;;;34.17;58.10;100497.09;4958263;28;66256;-29
2022/07/25 06:51:37;;;;;;;7.07;3.20;;;;;;;34.28;57.85;100508.09;4954732;28;70496;-30
2022/07/25 06:54:08;;;;;;;6.33;3.70;;;;;;;34.30;57.59;100495.06;4957238;28;67219;-30
2022/07/25 06:56:39;;;;;;;3.53;3.30;;;;;;;34.32;57.75;100493.72;4954579;28;70150;-30
2022/07/25 06:59:10;;;;;;;3.92;3.63;;;;;;;34.32;57.61;100482.00;4952056;28;65720;-30
2022/07/25 07:01:41;;;;;;;3.47;3.17;;;;;;;34.31;57.62;100469.50;5020706;28;69403;-30
2022/07/25 07:04:19;;;;;;;3.35;3.10;;;;;;;34.43;57.50;100473.72;4957002;28;66612;-30
2022/07/25 07:06:49;;;;;;;3.83;3.33;;;;;;;34.46;57.16;100477.81;5005308;28;69445;-30
2022/07/25 07:09:20;;;;;;;4.15;3.75;;;;;;;34.47;57.51;100465.88;5024273;28;65012;-30
2022/07/25 07:11:51;;;;;;;3.40;2.92;;;;;;;34.51;57.32;100466.19;4958930;28;69842;-30
2022/07/25 07:14:22;;;;;;;3.95;3.65;;;;;;;34.52;57.41;100460.50;4957424;28;65866;-30
2022/07/25 07:16:53;;;;;;;3.83;3.53;;;;;;;34.52;57.37;100455.03;4956397;28;70028;-29
2022/07/25 07:19:24;;;;;;;3.30;3.10;;;;;;;34.55;57.77;100450.97;4957796;28;65757;-30
2022/07/25 07:21:55;;;;;;;3.60;3.40;;;;;;;34.56;57.76;100452.66;4957217;28;69692;-30
2022/07/25 07:24:26;;;;;;;3.50;3.20;;;;;;;34.57;57.58;100457.81;4959012;28;65643;-30
2022/07/25 07:26:58;;;;;;;5.05;3.38;;;;;;;34.58;57.45;100448.59;5010914;28;70216;-30
2022/07/25 07:29:28;;;;;;;3.28;3.05;;;;;;;34.58;57.39;100448.59;4957323;28;66259;-31
2022/07/25 07:32:00;;;;;;;3.60;3.40;;;;;;;34.61;57.69;100445.34;5026662;28;69740;-29
2022/07/25 07:34:31;;;;;;;3.70;3.40;;;;;;;34.66;57.16;100439.16;5023621;28;66281;-29
2022/07/25 07:37:02;;;;;;;3.80;3.13;;;;;;;34.65;57.36;100430.13;5023217;28;69548;-31
2022/07/25 07:39:33;;;;;;;3.70;3.30;;;;;;;34.63;57.77;100429.59;4953433;28;65097;-30
2022/07/25 07:42:04;;;;;;;4.38;3.42;;;;;;;34.45;57.54;100386.31;4955589;28;70092;-29
2022/07/25 07:44:35;;;;;;;3.93;3.53;;;;;;;34.72;57.03;100431.84;4960386;28;65531;-31
2022/07/25 07:47:06;;;;;;;3.25;3.00;;;;;;;34.73;56.97;100426.13;4961620;28;69750;-30
2022/07/25 07:49:42;;;;;;;3.78;3.47;;;;;;;34.77;56.99;100426.44;4960768;28;66592;-31
2022/07/25 07:52:18;;;;;;;3.10;2.85;;;;;;;34.78;57.23;100425.38;4959860;28;69935;-30
2022/07/25 07:57:42;;;;;;;4.15;3.88;;;;;;;34.79;56.93;100408.75;4978128;28;69542;-31
2022/07/25 08:00:14;;;;;;;3.27;2.93;;;;;;;34.80;56.98;100406.84;4961346;28;66566;-30
2022/07/25 08:02:47;;;;;;;3.60;3.30;;;;;;;34.73;57.18;100390.72;4958678;28;70436;-29
2022/07/25 08:05:38;;;;;;;4.88;4.03;;;;;;;34.43;57.31;100342.19;4959646;28;65496;-30
2022/07/25 08:08:11;;;;;;;3.53;3.23;;;;;;;34.45;56.95;100342.75;4957990;28;69355;-30
2022/07/25 08:10:44;;;;;;;3.50;3.30;;;;;;;34.48;57.33;100347.69;4958301;28;65746;-30
2022/07/25 08:13:26;;;;;;;4.10;3.80;;;;;;;34.69;56.76;100384.16;5019893;28;43138;-30
2022/07/25 08:16:00;;;;;;;4.10;3.70;;;;;;;34.83;57.40;100395.44;5006661;28;66043;-29
2022/07/25 08:18:32;;;;;;;3.78;3.40;;;;;;;34.82;57.41;100391.88;4953316;28;70195;-29
2022/07/25 08:21:05;;;;;;;3.20;3.00;;;;;;;34.80;57.42;100374.13;4956246;28;66542;-30
2022/07/25 08:23:37;;;;;;;4.75;3.72;;;;;;;34.83;57.40;100374.47;4957137;28;69510;-29
2022/07/25 08:26:08;;;;;;;4.50;3.75;;;;;;;34.83;57.38;100379.09;4954603;28;65544;-30
2022/07/25 08:28:40;;;;;;;3.75;3.00;;;;;;;34.81;57.67;100359.44;5030199;28;70054;-29
2022/07/25 08:31:11;;;;;;;4.10;3.55;;;;;;;34.83;57.11;100373.66;4953428;28;66055;-31
2022/07/25 08:33:42;;;;;;;3.63;3.42;;;;;;;34.79;57.28;100381.50;4955123;28;69846;-30
2022/07/25 08:36:13;;;;;;;3.50;3.13;;;;;;;34.84;57.54;100381.53;4959608;28;65211;-31
2022/07/25 08:38:44;;;;;;;3.25;3.05;;;;;;;34.84;57.69;100372.56;4957267;28;69737;-29
2022/07/25 08:41:15;;;;;;;3.33;3.13;;;;;;;34.85;57.69;100376.91;4959744;28;66106;-29
2022/07/25 08:43:53;;;;;;;3.55;3.25;;;;;;;34.86;57.47;100375.84;4956871;28;69614;-30
2022/07/25 08:46:24;;;;;;;;;;;;;;;34.59;58.19;100384.84;4957907;28;66494;-30
2022/07/25 08:48:56;;;;;;;3.92;3.30;;;;;;;34.85;57.76;100376.91;4959002;28;72083;-29
2022/07/25 08:51:27;;;;;;;3.75;3.10;;;;;;;34.86;57.84;100411.28;4957306;28;65456;-30
2022/07/25 08:53:59;;;;;;;3.40;3.10;;;;;;;34.76;57.50;100394.81;4953739;28;69412;-29
2022/07/25 08:56:30;;;;;;;3.25;3.05;;;;;;;34.85;57.72;100401.44;5019210;28;65370;-30
2022/07/25 08:59:01;;;;;;;6.03;3.70;;;;;;;34.83;57.77;100401.72;4979049;28;69389;-29
2022/07/25 09:01:32;;;;;;;4.30;3.30;;;;;;;34.82;57.55;100400.06;4957816;28;66618;-29
2022/07/25 09:04:04;;;;;;;3.92;3.05;;;;;;;34.81;58.15;100403.06;4959252;28;69123;-30
2022/07/25 09:06:36;;;;;;;3.38;3.17;;;;;;;34.82;57.76;100391.88;4956090;28;66145;-30
2022/07/25 09:09:07;;;;;;;4.07;3.45;;;;;;;34.79;57.68;100394.31;4957724;28;70003;-31
2022/07/25 09:11:38;;;;;;;3.75;3.33;;;;;;;34.79;57.92;100410.66;4960203;28;65965;-29
2022/07/25 09:14:11;;;;;;;3.38;3.13;;;;;;;34.44;57.97;100352.00;4955792;28;69863;-30
2022/07/25 09:16:44;;;;;;;3.38;3.08;;;;;;;34.78;58.19;100419.91;4958450;28;66285;-30
2022/07/25 09:19:20;;;;;;;4.97;3.40;;;;;;;34.80;58.12;100428.63;5026333;28;69030;-30
2022/07/25 09:22:06;;;;;;;3.67;3.08;;;;;;;34.65;58.21;100416.50;4960772;28;66831;-30
2022/07/25 09:24:44;;;;;;;3.80;3.22;;;;;;;34.75;58.19;100439.50;4960849;28;69682;-30
2022/07/25 09:27:17;;;;;;;3.70;3.40;;;;;;;34.74;58.60;100430.47;4958403;28;66032;-31
2022/07/25 09:29:47;;;;;;;6.93;3.58;;;;;;;34.75;58.25;100431.34;4959084;28;69737;-30
2022/07/25 09:32:21;;;;;;;3.08;2.88;;;;;;;34.66;58.33;100422.81;4958971;28;66870;-30
2022/07/25 09:34:51;;;;;;;4.05;3.75;;;;;;;34.72;58.30;100437.31;4960278;28;70179;-30
2022/07/25 09:37:26;;;;;;;4.35;3.83;;;;;;;34.64;58.41;100422.22;4955369;28;66089;-30
2022/07/25 09:39:57;;;;;;;10.48;3.25;;;;;;;34.69;58.92;100436.72;4955869;28;69481;-30
2022/07/25 09:42:31;;;;;;;4.32;3.75;;;;;;;34.66;59.03;100434.53;4959395;28;66660;-30
2022/07/25 09:45:10;;;;;;;3.17;2.97;;;;;;;34.65;58.62;100438.31;4956302;28;70025;-29
2022/07/25 09:47:56;;;;;;;3.30;3.10;;;;;;;34.18;58.86;100367.25;4952953;28;66104;-30
2022/07/25 09:50:29;;;;;;;3.47;3.17;;;;;;;34.34;59.01;100388.13;4951905;28;69183;-29
2022/07/25 09:53:01;;;;;;;3.80;3.50;;;;;;;34.59;59.27;100423.00;4953561;28;66098;-30
2022/07/25 09:55:32;;;;;;;3.92;3.63;;;;;;;34.53;58.93;100418.53;4957621;28;69912;-30
2022/07/25 09:58:03;;;;;;;3.93;3.63;;;;;;;34.57;59.37;100433.31;4963039;28;65777;-30
2022/07/25 10:00:35;;;;;;;5.27;3.40;;;;;;;34.56;59.39;100428.97;4963723;28;70587;-30
2022/07/25 10:03:17;;;;;;;7.50;3.03;;;;;;;34.55;59.32;100438.19;5021617;28;66213;-31
2022/07/25 10:06:01;;;;;;;3.53;3.33;;;;;;;34.54;59.44;100452.88;5033663;28;69801;-30
2022/07/25 10:08:40;;;;;;;4.82;3.67;;;;;;;34.51;59.44;100477.88;4956511;28;66144;-34
2022/07/25 10:11:21;;;;;;;3.67;3.38;;;;;;;34.48;59.28;100471.03;4958628;28;70027;-30
2022/07/25 10:13:53;;;;;;;3.60;3.30;;;;;;;34.48;59.41;100453.88;5023389;28;66072;-31
2022/07/25 10:16:26;;;;;;;5.57;3.58;;;;;;;34.39;59.28;100441.81;4958029;28;69269;-32
2022/07/25 10:18:58;;;;;;;3.63;3.42;;;;;;;34.46;59.46;100451.44;4954717;28;66171;-31
2022/07/25 10:21:29;;;;;;;4.10;3.80;;;;;;;34.42;59.59;100444.03;5021958;28;69909;-30
2022/07/25 10:24:09;;;;;;;4.28;3.92;;;;;;;34.40;59.37;100446.16;4953745;28;66010;-30
2022/07/25 10:26:51;;;;;;;4.00;3.70;;;;;;;34.06;60.06;100397.31;4951982;28;69582;-31
2022/07/25 10:29:34;;;;;;;4.18;3.88;;;;;;;34.05;59.96;100400.31;5024073;28;66032;-30
2022/07/25 10:32:08;;;;;;;;;;;;;;;34.06;60.73;100461.81;4956880;28;70135;-30
2022/07/25 10:34:39;;;;;;;4.28;3.97;;;;;;;34.31;59.80;100455.88;4956622;28;66487;-29
2022/07/25 10:37:17;;;;;;;4.22;3.85;;;;;;;34.31;60.31;100459.41;4956190;28;71365;-29
2022/07/25 10:39:48;;;;;;;5.10;4.70;;;;;;;34.32;60.29;100461.03;5022609;28;66450;-31
2022/07/25 10:42:23;;;;;;;5.05;4.38;;;;;;;34.31;60.04;100480.38;4956980;28;70679;-29
2022/07/25 10:44:58;;;;;;;3.90;3.60;;;;;;;33.94;59.74;100432.78;4957579;28;66030;-30
2022/07/25 10:47:29;;;;;;;6.30;4.50;;;;;;;34.28;60.18;100489.06;4959065;28;70304;-31
2022/07/25 10:50:03;;;;;;;4.15;3.85;;;;;;;34.25;60.40;100483.03;4958186;28;66230;-31
2022/07/25 10:53:06;;;;;;;4.13;3.75;;;;;;;34.22;60.45;100488.16;4953834;28;69580;-31
2022/07/25 10:55:37;;;;;;;4.28;3.92;;;;;;;34.22;60.26;100494.44;4955233;28;66430;-30
2022/07/25 10:58:08;;;;;;;4.53;4.13;;;;;;;34.10;60.20;100473.84;4954382;28;71046;-29
2022/07/25 11:00:46;;;;;;;4.40;4.10;;;;;;;34.15;60.28;100476.63;4951766;28;65393;-31
2022/07/25 11:03:19;;;;;;;5.57;3.88;;;;;;;34.14;60.42;100480.44;4952861;28;69500;-30
2022/07/25 11:05:53;;;;;;;4.43;3.55;;;;;;;34.14;60.80;100480.44;4957985;28;65289;-30
2022/07/25 11:08:32;;;;;;;4.35;3.97;;;;;;;34.12;61.03;100472.50;5028273;28;70212;-30
2022/07/25 11:11:03;;;;;;;5.20;4.32;;;;;;;34.16;60.76;100475.56;4959692;28;66167;-31
2022/07/25 11:13:41;;;;;;;4.63;4.20;;;;;;;33.77;60.77;100426.59;5026061;28;71931;-30
2022/07/25 11:16:13;;;;;;;9.30;4.10;;;;;;;34.17;60.71;100479.94;4958980;28;65521;-31
2022/07/25 11:18:43;;;;;;;7.53;4.57;;;;;;;34.15;60.93;100482.88;4959567;28;69425;-30
2022/07/25 11:21:14;;;;;;;5.63;5.03;;;;;;;34.14;61.17;100483.16;4961860;28;67205;-30
2022/07/25 11:23:51;;;;;;;9.75;6.72;;;;;;;34.16;61.42;100483.75;5027293;28;69167;-31
2022/07/25 11:26:21;;;;;;;19.95;9.30;;;;;;;34.16;61.72;100472.84;4958069;28;65950;-31
2022/07/25 11:28:52;;;;;;;19.67;10.88;;;;;;;34.07;61.84;100458.81;4955346;28;69731;-31
2022/07/25 11:31:23;;;;;;;20.25;12.82;;;;;;;34.09;61.88;100473.00;4960636;28;65120;-31
2022/07/25 11:33:54;;;;;;;13.43;11.80;;;;;;;34.16;62.26;100494.63;4953548;28;70272;-30
2022/07/25 11:36:26;;;;;;;16.58;11.82;;;;;;;34.14;62.46;100500.31;5023606;28;64913;-30
2022/07/25 11:38:57;;;;;;;13.93;11.47;;;;;;;34.14;62.19;100508.47;4960895;28;71041;-32
2022/07/25 11:41:29;;;;;;;16.80;11.73;;;;;;;34.15;62.25;100514.72;5028539;28;67952;-31
2022/07/25 11:44:00;;;;;;;22.05;12.10;;;;;;;34.15;62.40;100520.19;4959514;28;70542;-31
2022/07/25 11:46:43;;;;;;;13.52;10.98;;;;;;;34.07;62.83;100518.72;4957456;28;65592;-30
2022/07/25 11:49:14;;;;;;;13.55;10.23;;;;;;;34.12;62.43;100521.50;4955806;28;69862;-31